createdAt,value
2023-01-27T00:00:26.574Z,6.90
2023-01-27T00:02:53.305Z,6.80
2023-01-27T00:05:24.749Z,6.80
2023-01-27T00:07:51.425Z,6.80
2023-01-27T00:10:18.940Z,6.80
2023-01-27T00:13:05.263Z,6.80
2023-01-27T00:15:32.401Z,6.80
2023-01-27T00:17:59.062Z,6.80
2023-01-27T00:20:44.507Z,6.80
2023-01-27T00:23:37.020Z,6.70
2023-01-27T00:26:06.481Z,6.70
2023-01-27T00:28:33.770Z,6.70
2023-01-27T00:31:00.719Z,6.70
2023-01-27T00:33:28.403Z,6.70
2023-01-27T00:35:58.746Z,6.70
2023-01-27T00:38:28.329Z,6.70
2023-01-27T00:41:13.672Z,6.70
2023-01-27T00:43:40.587Z,6.70
2023-01-27T00:46:07.572Z,6.70
2023-01-27T00:48:34.975Z,6.70
2023-01-27T00:51:01.894Z,6.70
2023-01-27T00:53:28.618Z,6.70
2023-01-27T00:55:55.359Z,6.70
2023-01-27T00:58:22.448Z,6.70
2023-01-27T01:00:49.951Z,6.70
2023-01-27T01:03:19.629Z,6.70
2023-01-27T01:05:46.359Z,6.70
2023-01-27T01:08:14.327Z,6.60
2023-01-27T01:10:41.198Z,6.70
2023-01-27T01:13:10.000Z,6.60
2023-01-27T01:15:37.383Z,6.60
2023-01-27T01:18:06.849Z,6.60
2023-01-27T01:20:38.349Z,6.50
2023-01-27T01:23:08.049Z,6.60
2023-01-27T01:25:35.254Z,6.60
2023-01-27T01:28:02.735Z,6.60
2023-01-27T01:30:29.564Z,6.60
2023-01-27T01:32:56.718Z,6.60
2023-01-27T01:35:25.061Z,6.60
2023-01-27T01:37:52.956Z,6.50
2023-01-27T01:40:25.520Z,6.60
2023-01-27T01:42:56.778Z,6.60
2023-01-27T01:45:36.359Z,6.60
2023-01-27T01:48:06.865Z,6.50
2023-01-27T01:50:38.680Z,6.50
2023-01-27T01:53:06.683Z,6.50
2023-01-27T01:55:34.352Z,6.50
2023-01-27T01:58:01.634Z,6.50
2023-01-27T02:00:28.311Z,6.80
2023-01-27T02:02:55.160Z,6.50
2023-01-27T02:05:27.456Z,6.50
2023-01-27T02:07:57.839Z,6.50
2023-01-27T02:10:24.715Z,6.40
2023-01-27T02:12:51.421Z,6.40
2023-01-27T02:15:18.286Z,6.40
2023-01-27T02:17:45.433Z,6.40
2023-01-27T02:20:18.382Z,6.40
2023-01-27T02:22:52.492Z,6.40
2023-01-27T02:25:28.189Z,6.40
2023-01-27T02:27:54.899Z,6.40
2023-01-27T02:30:21.679Z,6.30
2023-01-27T02:32:48.407Z,6.30
2023-01-27T02:35:19.553Z,6.30
2023-01-27T02:37:47.126Z,6.30
2023-01-27T02:40:13.987Z,6.30
2023-01-27T02:42:40.674Z,6.30
2023-01-27T02:45:07.536Z,6.30
2023-01-27T02:47:34.461Z,6.30
2023-01-27T02:50:01.201Z,6.30
2023-01-27T02:52:27.842Z,6.20
2023-01-27T02:54:54.805Z,6.30
2023-01-27T02:57:21.488Z,6.30
2023-01-27T03:00:13.254Z,6.30
2023-01-27T03:02:40.096Z,6.20
2023-01-27T03:05:07.069Z,6.20
2023-01-27T03:07:34.271Z,6.20
2023-01-27T03:10:00.925Z,6.20
2023-01-27T03:12:31.899Z,6.20
2023-01-27T03:15:27.011Z,6.20
2023-01-27T03:18:12.704Z,6.20
2023-01-27T03:20:43.086Z,6.20
2023-01-27T03:23:10.024Z,6.50
2023-01-27T03:25:41.059Z,6.20
2023-01-27T03:28:08.059Z,6.20
2023-01-27T03:30:51.334Z,6.20
2023-01-27T03:33:22.963Z,6.20
2023-01-27T03:36:10.845Z,6.20
2023-01-27T03:39:02.818Z,6.20
2023-01-27T03:41:48.271Z,6.20
2023-01-27T03:44:34.318Z,6.10
2023-01-27T03:47:01.412Z,6.10
2023-01-27T03:49:28.013Z,6.10
2023-01-27T03:51:55.521Z,6.10
2023-01-27T03:54:22.181Z,6.10
2023-01-27T03:56:48.923Z,6.10
2023-01-27T03:59:17.227Z,6.10
2023-01-27T04:01:44.086Z,6.00
2023-01-27T04:04:29.588Z,6.00
2023-01-27T04:06:58.844Z,6.00
2023-01-27T04:09:26.974Z,5.90
2023-01-27T04:12:00.569Z,5.90
2023-01-27T04:14:28.923Z,5.90
2023-01-27T04:17:00.254Z,5.80
2023-01-27T04:19:27.128Z,5.80
2023-01-27T04:21:54.154Z,5.80
2023-01-27T04:24:24.044Z,5.70
2023-01-27T04:26:58.066Z,5.70
2023-01-27T04:29:26.271Z,5.70
2023-01-27T04:31:53.454Z,5.70
2023-01-27T04:34:20.172Z,5.60
2023-01-27T04:36:47.531Z,5.60
2023-01-27T04:39:14.871Z,5.60
2023-01-27T04:41:41.666Z,5.60
2023-01-27T04:44:08.361Z,5.50
2023-01-27T04:46:35.126Z,5.60
2023-01-27T04:49:02.286Z,5.60
2023-01-27T04:51:31.343Z,5.60
2023-01-27T04:54:00.223Z,5.60
2023-01-27T04:56:31.719Z,5.60
2023-01-27T04:58:59.862Z,5.50
2023-01-27T05:01:27.185Z,5.50
2023-01-27T05:03:54.707Z,5.50
2023-01-27T05:06:21.801Z,5.50
2023-01-27T05:08:48.599Z,5.50
2023-01-27T05:11:15.354Z,5.40
2023-01-27T05:13:42.173Z,5.40
2023-01-27T05:16:10.661Z,5.40
2023-01-27T05:18:37.789Z,5.40
2023-01-27T05:21:05.456Z,5.40
2023-01-27T05:23:35.285Z,5.40
2023-01-27T05:26:08.446Z,5.40
2023-01-27T05:28:35.865Z,5.40
2023-01-27T05:31:03.523Z,5.40
2023-01-27T05:33:30.417Z,5.40
2023-01-27T05:36:01.661Z,5.50
2023-01-27T05:38:28.715Z,5.40
2023-01-27T05:40:56.696Z,5.40
2023-01-27T05:43:23.759Z,5.40
2023-01-27T05:45:50.377Z,5.40
2023-01-27T05:48:17.126Z,5.40
2023-01-27T05:50:43.763Z,5.30
2023-01-27T05:53:10.645Z,5.30
2023-01-27T05:55:39.635Z,5.30
2023-01-27T05:58:08.442Z,5.20
2023-01-27T06:00:35.124Z,5.20
2023-01-27T06:03:01.918Z,5.20
2023-01-27T06:05:28.588Z,5.20
2023-01-27T06:07:57.575Z,5.10
2023-01-27T06:10:24.316Z,5.00
2023-01-27T06:12:50.940Z,5.00
2023-01-27T06:15:17.910Z,5.10
2023-01-27T06:17:44.529Z,5.10
2023-01-27T06:20:11.423Z,5.10
2023-01-27T06:22:38.165Z,5.10
2023-01-27T06:25:05.083Z,5.10
2023-01-27T06:27:31.684Z,5.10
2023-01-27T06:29:58.335Z,5.10
2023-01-27T06:32:25.278Z,5.10
2023-01-27T06:34:52.098Z,5.10
2023-01-27T06:37:18.678Z,5.10
2023-01-27T06:39:45.294Z,5.10
2023-01-27T06:42:12.089Z,5.10
2023-01-27T06:44:38.844Z,5.10
2023-01-27T06:47:05.578Z,5.10
2023-01-27T06:49:33.737Z,5.20
2023-01-27T06:52:00.435Z,5.20
2023-01-27T06:54:27.310Z,5.10
2023-01-27T06:56:53.916Z,5.10
2023-01-27T06:59:20.579Z,5.10
2023-01-27T07:01:47.506Z,5.10
2023-01-27T07:04:14.143Z,5.20
2023-01-27T07:06:41.097Z,5.20
2023-01-27T07:09:08.005Z,5.20
2023-01-27T07:11:36.721Z,5.20
2023-01-27T07:14:03.473Z,5.20
2023-01-27T07:16:30.491Z,5.20
2023-01-27T07:18:57.135Z,5.20
2023-01-27T07:21:24.576Z,5.10
2023-01-27T07:23:54.922Z,5.20
2023-01-27T07:26:25.077Z,5.10
2023-01-27T07:28:56.101Z,5.10
2023-01-27T07:31:26.145Z,5.10
2023-01-27T07:33:53.786Z,5.10
2023-01-27T07:36:20.438Z,5.20
2023-01-27T07:38:50.844Z,5.20
2023-01-27T07:41:17.607Z,5.20
2023-01-27T07:43:44.242Z,5.30
2023-01-27T07:46:11.063Z,5.30
2023-01-27T07:48:37.870Z,5.30
2023-01-27T07:51:04.558Z,5.20
2023-01-27T07:53:31.245Z,5.30
2023-01-27T07:56:00.812Z,5.30
2023-01-27T07:58:28.501Z,5.30
2023-01-27T08:00:55.182Z,5.30
2023-01-27T08:03:25.665Z,5.30
2023-01-27T08:05:54.636Z,5.30
2023-01-27T08:08:21.255Z,5.30
2023-01-27T08:10:49.215Z,5.30
2023-01-27T08:13:16.365Z,5.30
2023-01-27T08:15:43.462Z,5.40
2023-01-27T08:18:10.687Z,5.40
2023-01-27T08:20:37.370Z,5.40
2023-01-27T08:23:05.077Z,5.40
2023-01-27T08:25:34.115Z,5.50
2023-01-27T08:28:01.810Z,5.40
2023-01-27T08:30:28.579Z,5.50
2023-01-27T08:32:55.272Z,5.50
2023-01-27T08:35:21.934Z,5.50
2023-01-27T08:37:49.038Z,5.60
2023-01-27T08:40:16.425Z,5.60
2023-01-27T08:42:43.097Z,5.60
2023-01-27T08:45:09.860Z,5.60
2023-01-27T08:47:36.548Z,5.60
2023-01-27T08:50:03.291Z,5.60
2023-01-27T08:52:30.782Z,5.70
2023-01-27T08:54:58.093Z,5.70
2023-01-27T08:57:25.053Z,5.70
2023-01-27T08:59:51.826Z,5.70
2023-01-27T09:02:18.465Z,5.70
2023-01-27T09:04:45.238Z,5.80
2023-01-27T09:07:11.944Z,5.90
2023-01-27T09:09:38.636Z,5.90
2023-01-27T09:12:05.215Z,5.90
2023-01-27T09:14:31.973Z,6.00
2023-01-27T09:16:58.625Z,6.00
2023-01-27T09:19:25.420Z,6.00
2023-01-27T09:21:52.058Z,6.10
2023-01-27T09:24:19.345Z,6.10
2023-01-27T09:26:46.391Z,6.20
2023-01-27T09:29:13.118Z,6.20
2023-01-27T09:31:40.012Z,6.20
2023-01-27T09:34:06.902Z,6.30
2023-01-27T09:36:37.242Z,6.30
2023-01-27T09:39:08.038Z,6.40
2023-01-27T09:41:34.609Z,6.40
2023-01-27T09:44:27.707Z,6.40
2023-01-27T09:47:26.921Z,6.40
2023-01-27T09:50:12.580Z,6.50
2023-01-27T09:52:49.346Z,6.50
2023-01-27T09:55:23.668Z,6.50
2023-01-27T09:58:00.286Z,6.50
2023-01-27T10:00:42.026Z,6.50
2023-01-27T10:03:17.644Z,6.40
2023-01-27T10:05:44.304Z,6.40
2023-01-27T10:08:22.908Z,6.40
2023-01-27T10:10:58.218Z,6.40
2023-01-27T10:13:31.401Z,6.40
2023-01-27T10:16:13.217Z,6.40
2023-01-27T10:18:49.417Z,6.40
2023-01-27T10:21:16.135Z,6.40
2023-01-27T10:24:01.566Z,6.40
2023-01-27T10:26:36.127Z,6.40
2023-01-27T10:29:13.603Z,6.30
2023-01-27T10:31:50.484Z,6.30
2023-01-27T10:34:28.075Z,6.30
2023-01-27T10:37:03.973Z,6.30
2023-01-27T10:39:43.883Z,6.20
2023-01-27T10:42:21.847Z,6.30
2023-01-27T10:44:48.463Z,6.10
2023-01-27T10:47:34.434Z,6.20
2023-01-27T10:50:03.229Z,6.20
2023-01-27T10:52:38.626Z,6.30
2023-01-27T10:55:05.732Z,6.30
2023-01-27T10:57:45.008Z,6.30
2023-01-27T11:00:37.915Z,6.40
2023-01-27T11:03:21.729Z,6.40
2023-01-27T11:05:51.427Z,6.50
2023-01-27T11:08:26.453Z,6.50
2023-01-27T11:11:16.883Z,6.60
2023-01-27T11:13:43.858Z,6.60
2023-01-27T11:16:18.143Z,6.60
2023-01-27T11:18:46.488Z,6.60
2023-01-27T11:21:18.991Z,6.70
2023-01-27T11:23:58.160Z,6.70
2023-01-27T11:26:40.101Z,6.70
2023-01-27T11:29:09.791Z,6.80
2023-01-27T11:31:46.463Z,6.80
2023-01-27T11:34:19.152Z,6.80
2023-01-27T11:36:47.281Z,6.80
2023-01-27T11:39:15.685Z,6.80
2023-01-27T11:41:53.159Z,6.80
2023-01-27T11:44:22.646Z,6.70
2023-01-27T11:46:49.865Z,6.80
2023-01-27T11:49:19.771Z,6.70
2023-01-27T11:51:46.375Z,6.70
2023-01-27T11:54:22.362Z,6.70
2023-01-27T11:56:49.965Z,6.60
2023-01-27T11:59:24.822Z,6.60
2023-01-27T12:01:59.333Z,6.60
2023-01-27T12:04:32.564Z,6.60
2023-01-27T12:07:25.737Z,6.60
2023-01-27T12:09:52.610Z,6.60
2023-01-27T12:12:25.431Z,6.50
2023-01-27T12:14:56.155Z,6.50
2023-01-27T12:17:38.827Z,6.60
2023-01-27T12:20:15.129Z,6.50
2023-01-27T12:22:44.747Z,6.60
2023-01-27T12:25:16.014Z,6.70
2023-01-27T12:27:50.285Z,6.70
2023-01-27T12:30:23.204Z,6.80
2023-01-27T12:32:52.897Z,6.70
2023-01-27T12:35:19.520Z,6.80
2023-01-27T12:37:47.261Z,6.70
2023-01-27T12:40:19.375Z,6.70
2023-01-27T12:42:55.795Z,6.70
2023-01-27T12:45:23.659Z,6.60
2023-01-27T12:47:57.949Z,6.60
2023-01-27T12:50:26.322Z,6.60
2023-01-27T12:53:13.181Z,6.50
2023-01-27T12:55:42.961Z,6.50
2023-01-27T12:58:21.844Z,6.50
2023-01-27T13:00:48.572Z,6.50
2023-01-27T13:03:15.506Z,6.50
2023-01-27T13:05:43.210Z,6.50
2023-01-27T13:08:14.526Z,6.50
2023-01-27T13:10:48.988Z,6.50
2023-01-27T13:13:20.635Z,6.40
2023-01-27T13:15:58.084Z,6.40
2023-01-27T13:18:24.895Z,6.40
2023-01-27T13:20:55.155Z,6.30
2023-01-27T13:23:23.153Z,6.30
2023-01-27T13:25:52.852Z,6.30
2023-01-27T13:28:50.313Z,6.20
2023-01-27T13:31:27.876Z,6.20
2023-01-27T13:33:56.887Z,6.10
2023-01-27T13:36:31.957Z,6.10
2023-01-27T13:39:06.421Z,6.00
2023-01-27T13:41:45.806Z,6.00
2023-01-27T13:44:26.576Z,6.00
2023-01-27T13:46:54.452Z,6.10
2023-01-27T13:49:29.034Z,6.10
2023-01-27T13:51:57.886Z,6.10
2023-01-27T13:54:25.327Z,6.00
2023-01-27T13:57:04.463Z,6.00
2023-01-27T13:59:37.338Z,6.00
2023-01-27T14:02:23.138Z,6.00
2023-01-27T14:05:07.571Z,6.00
2023-01-27T14:07:52.967Z,5.90
2023-01-27T14:10:22.830Z,6.10
2023-01-27T14:12:58.891Z,5.90
2023-01-27T14:15:25.546Z,5.90
2023-01-27T14:17:57.227Z,5.90
2023-01-27T14:20:26.919Z,5.80
2023-01-27T14:23:00.100Z,5.80
2023-01-27T14:25:44.364Z,5.90
2023-01-27T14:28:30.898Z,5.90
2023-01-27T14:31:01.257Z,6.00
2023-01-27T14:33:42.941Z,6.00
2023-01-27T14:36:14.440Z,6.00
2023-01-27T14:39:02.353Z,6.00
2023-01-27T14:41:36.969Z,5.90
2023-01-27T14:44:06.909Z,5.90
2023-01-27T14:46:54.824Z,5.90
2023-01-27T14:49:24.679Z,5.90
2023-01-27T14:51:54.321Z,5.90
2023-01-27T14:54:39.788Z,5.90
2023-01-27T14:57:06.457Z,5.90
2023-01-27T14:59:33.073Z,5.90
2023-01-27T15:01:59.780Z,5.90
2023-01-27T15:04:38.006Z,5.80
2023-01-27T15:07:04.772Z,6.00
2023-01-27T15:09:45.213Z,5.80
2023-01-27T15:12:20.162Z,5.80
2023-01-27T15:14:57.693Z,5.80
2023-01-27T15:17:35.353Z,5.80
2023-01-27T15:20:13.760Z,5.80
2023-01-27T15:22:52.322Z,5.80
2023-01-27T15:25:19.896Z,5.80
2023-01-27T15:27:47.629Z,5.80
2023-01-27T15:30:26.541Z,5.80
2023-01-27T15:32:53.333Z,5.80
2023-01-27T15:35:29.328Z,5.80
2023-01-27T15:37:58.761Z,5.70
2023-01-27T15:40:27.956Z,5.70
2023-01-27T15:42:57.496Z,5.70
2023-01-27T15:45:30.228Z,5.70
2023-01-27T15:48:01.090Z,5.70
2023-01-27T15:50:30.336Z,5.70
2023-01-27T15:53:10.852Z,5.80
2023-01-27T15:55:37.969Z,5.80
2023-01-27T15:58:06.590Z,5.80
2023-01-27T16:00:38.399Z,5.70
2023-01-27T16:03:06.640Z,5.70
2023-01-27T16:05:37.577Z,5.70
2023-01-27T16:08:14.200Z,5.70
2023-01-27T16:10:41.282Z,5.70
2023-01-27T16:13:26.034Z,5.70
2023-01-27T16:16:11.255Z,5.70
2023-01-27T16:18:46.502Z,5.60
2023-01-27T16:21:34.578Z,5.60
2023-01-27T16:24:05.469Z,5.60
2023-01-27T16:26:40.185Z,5.60
2023-01-27T16:29:16.039Z,5.60
2023-01-27T16:31:44.085Z,5.70
2023-01-27T16:34:17.699Z,5.70
2023-01-27T16:36:46.790Z,5.70
2023-01-27T16:39:25.459Z,5.70
2023-01-27T16:41:57.264Z,5.70
2023-01-27T16:44:44.309Z,5.70
2023-01-27T16:47:20.690Z,5.70
2023-01-27T16:49:50.449Z,5.60
2023-01-27T16:52:21.102Z,5.60
2023-01-27T16:54:52.230Z,5.60
2023-01-27T16:57:27.136Z,5.60
2023-01-27T16:59:54.696Z,5.60
2023-01-27T17:02:23.560Z,5.60
2023-01-27T17:04:58.986Z,5.70
2023-01-27T17:07:25.606Z,5.70
2023-01-27T17:09:54.028Z,5.70
2023-01-27T17:12:39.864Z,5.70
2023-01-27T17:15:20.283Z,5.70
2023-01-27T17:17:49.339Z,5.70
2023-01-27T17:20:20.902Z,5.60
2023-01-27T17:22:53.906Z,5.70
2023-01-27T17:25:27.402Z,5.70
2023-01-27T17:27:54.652Z,5.70
2023-01-27T17:30:26.061Z,5.70
2023-01-27T17:32:58.852Z,5.70
2023-01-27T17:35:26.978Z,5.70
2023-01-27T17:38:04.458Z,5.70
2023-01-27T17:40:38.519Z,5.70
2023-01-27T17:43:41.045Z,5.70
2023-01-27T17:46:10.272Z,5.80
2023-01-27T17:48:38.759Z,5.70
2023-01-27T17:51:05.544Z,5.70
2023-01-27T17:53:32.862Z,5.70
2023-01-27T17:56:00.522Z,5.80
2023-01-27T17:58:28.361Z,5.80
2023-01-27T18:00:55.767Z,5.80
2023-01-27T18:03:23.541Z,5.80
2023-01-27T18:05:52.624Z,5.80
2023-01-27T18:08:19.420Z,5.80
2023-01-27T18:10:46.363Z,5.90
2023-01-27T18:13:13.299Z,5.80
2023-01-27T18:15:42.016Z,5.80
2023-01-27T18:18:25.653Z,5.80
2023-01-27T18:20:53.619Z,5.80
2023-01-27T18:23:23.845Z,5.80
2023-01-27T18:26:00.771Z,5.80
2023-01-27T18:28:28.211Z,5.70
2023-01-27T18:30:57.032Z,5.70
2023-01-27T18:33:23.728Z,5.70
2023-01-27T18:36:06.154Z,5.70
2023-01-27T18:38:35.443Z,5.70
2023-01-27T18:41:09.125Z,5.70
2023-01-27T18:43:35.857Z,5.70
2023-01-27T18:46:08.895Z,5.70
2023-01-27T18:48:36.443Z,5.80
2023-01-27T18:51:08.010Z,5.80
2023-01-27T18:53:35.575Z,5.70
2023-01-27T18:56:02.918Z,5.70
2023-01-27T18:58:29.575Z,5.80
2023-01-27T19:00:57.471Z,5.70
2023-01-27T19:03:25.191Z,5.70
2023-01-27T19:05:51.932Z,5.80
2023-01-27T19:08:19.975Z,5.80
2023-01-27T19:10:47.203Z,5.80
2023-01-27T19:13:16.547Z,5.70
2023-01-27T19:15:50.874Z,5.70
2023-01-27T19:18:20.727Z,5.70
2023-01-27T19:20:47.479Z,5.70
2023-01-27T19:23:15.770Z,5.60
2023-01-27T19:25:43.074Z,5.60
2023-01-27T19:28:15.852Z,5.70
2023-01-27T19:30:45.025Z,5.60
2023-01-27T19:33:19.122Z,5.60
2023-01-27T19:35:52.017Z,5.60
2023-01-27T19:38:18.714Z,5.60
2023-01-27T19:40:45.382Z,5.60
2023-01-27T19:43:13.428Z,5.60
2023-01-27T19:45:43.508Z,5.60
2023-01-27T19:48:13.116Z,5.70
2023-01-27T19:50:40.096Z,5.70
2023-01-27T19:53:06.764Z,5.60
2023-01-27T19:55:33.941Z,5.60
2023-01-27T19:58:01.055Z,5.60
2023-01-27T20:00:29.211Z,5.40
2023-01-27T20:02:56.202Z,5.60
2023-01-27T20:05:26.667Z,5.60
2023-01-27T20:07:54.566Z,5.60
2023-01-27T20:10:25.509Z,5.60
2023-01-27T20:13:12.562Z,5.60
2023-01-27T20:15:42.311Z,5.70
2023-01-27T20:18:09.451Z,5.70
2023-01-27T20:20:38.627Z,5.70
2023-01-27T20:23:05.754Z,5.70
2023-01-27T20:25:32.924Z,5.70
2023-01-27T20:28:00.679Z,5.70
2023-01-27T20:30:34.263Z,5.70
2023-01-27T20:33:02.093Z,5.70
2023-01-27T20:35:29.330Z,5.70
2023-01-27T20:37:58.278Z,5.70
2023-01-27T20:40:26.079Z,5.70
2023-01-27T20:42:52.787Z,5.70
2023-01-27T20:45:22.142Z,5.60
2023-01-27T20:47:50.368Z,5.70
2023-01-27T20:50:17.731Z,5.60
2023-01-27T20:52:44.742Z,5.60
2023-01-27T20:55:13.204Z,5.60
2023-01-27T20:57:42.186Z,5.60
2023-01-27T21:00:24.941Z,5.60
2023-01-27T21:02:52.876Z,5.60
2023-01-27T21:05:19.676Z,5.60
2023-01-27T21:07:46.328Z,5.60
2023-01-27T21:10:13.030Z,5.60
2023-01-27T21:12:39.768Z,5.50
2023-01-27T21:15:09.560Z,5.60
2023-01-27T21:17:36.584Z,5.60
2023-01-27T21:20:03.470Z,5.60
2023-01-27T21:22:30.178Z,5.60
2023-01-27T21:24:56.853Z,5.60
2023-01-27T21:27:23.558Z,5.60
2023-01-27T21:29:50.608Z,5.60
2023-01-27T21:32:17.747Z,5.60
2023-01-27T21:34:44.466Z,5.50
2023-01-27T21:37:11.131Z,5.50
2023-01-27T21:39:37.819Z,5.50
2023-01-27T21:42:04.446Z,5.40
2023-01-27T21:44:49.884Z,5.50
2023-01-27T21:47:17.890Z,5.40
2023-01-27T21:50:00.370Z,5.40
2023-01-27T21:52:36.426Z,5.40
2023-01-27T21:55:04.591Z,5.40
2023-01-27T21:57:31.535Z,5.40
2023-01-27T21:59:58.218Z,5.40
2023-01-27T22:02:27.686Z,5.40
2023-01-27T22:04:55.261Z,5.40
2023-01-27T22:07:22.035Z,5.40
2023-01-27T22:09:48.667Z,5.40
2023-01-27T22:12:16.720Z,5.40
2023-01-27T22:14:43.886Z,5.40
2023-01-27T22:17:10.605Z,5.40
2023-01-27T22:19:39.318Z,5.40
2023-01-27T22:22:11.685Z,5.40
2023-01-27T22:24:38.538Z,5.40
2023-01-27T22:27:05.210Z,5.40
2023-01-27T22:29:32.135Z,5.40
2023-01-27T22:31:59.069Z,5.40
2023-01-27T22:34:26.835Z,5.40
2023-01-27T22:36:53.660Z,5.40
2023-01-27T22:39:20.353Z,5.40
2023-01-27T22:41:47.254Z,5.40
2023-01-27T22:44:14.149Z,5.40
2023-01-27T22:46:42.674Z,5.40
2023-01-27T22:49:09.903Z,5.30
2023-01-27T22:51:36.906Z,5.30
2023-01-27T22:54:04.898Z,5.30
2023-01-27T22:56:34.172Z,5.30
2023-01-27T22:59:00.942Z,5.30
2023-01-27T23:01:27.925Z,5.20
2023-01-27T23:03:54.658Z,5.20
2023-01-27T23:06:22.778Z,5.10
2023-01-27T23:08:49.384Z,5.20
2023-01-27T23:11:16.103Z,5.20
2023-01-27T23:13:44.119Z,5.20
2023-01-27T23:16:11.826Z,5.20
2023-01-27T23:18:38.914Z,5.20
2023-01-27T23:21:06.659Z,5.20
2023-01-27T23:23:36.564Z,5.20
2023-01-27T23:26:07.619Z,5.20
2023-01-27T23:28:34.964Z,5.20
2023-01-27T23:31:01.697Z,5.20
2023-01-27T23:33:35.445Z,5.20
2023-01-27T23:36:02.228Z,5.20
2023-01-27T23:38:33.053Z,5.20
2023-01-27T23:41:21.659Z,5.20
2023-01-27T23:43:52.275Z,5.20
2023-01-27T23:46:19.368Z,5.10
2023-01-27T23:48:52.406Z,5.10
2023-01-27T23:51:19.667Z,5.10
2023-01-27T23:53:46.579Z,5.10
2023-01-27T23:56:17.507Z,5.10
2023-01-27T23:58:44.627Z,5.20
